sensor_id;sensor_type;location;lat;lon;timestamp;P1;durP1;ratioP1;P2;durP2;ratioP2
49488;SDS011;35382;51.484;11.476;2023-02-03T00:01:23;13.90;;;6.00;;
49488;SDS011;35382;51.484;11.476;2023-02-03T00:03:04;13.82;;;6.50;;
49488;SDS011;35382;51.484;11.476;2023-02-03T00:04:45;16.20;;;6.45;;
49488;SDS011;35382;51.484;11.476;2023-02-03T00:06:26;14.13;;;6.90;;
49488;SDS011;35382;51.484;11.476;2023-02-03T00:08:07;15.05;;;6.40;;
49488;SDS011;35382;51.484;11.476;2023-02-03T00:09:48;15.13;;;6.70;;
49488;SDS011;35382;51.484;11.476;2023-02-03T00:11:29;16.85;;;6.47;;
49488;SDS011;35382;51.484;11.476;2023-02-03T00:13:11;13.73;;;6.35;;
49488;SDS011;35382;51.484;11.476;2023-02-03T00:14:52;14.20;;;6.60;;
49488;SDS011;35382;51.484;11.476;2023-02-03T00:16:33;16.65;;;6.15;;
49488;SDS011;35382;51.484;11.476;2023-02-03T00:18:14;11.95;;;6.00;;
49488;SDS011;35382;51.484;11.476;2023-02-03T00:19:55;14.38;;;7.40;;
49488;SDS011;35382;51.484;11.476;2023-02-03T00:21:36;14.75;;;6.55;;
49488;SDS011;35382;51.484;11.476;2023-02-03T00:23:17;14.60;;;8.00;;
49488;SDS011;35382;51.484;11.476;2023-02-03T00:25:01;13.05;;;6.85;;
49488;SDS011;35382;51.484;11.476;2023-02-03T00:26:42;14.98;;;7.15;;
49488;SDS011;35382;51.484;11.476;2023-02-03T00:28:23;14.57;;;7.45;;
49488;SDS011;35382;51.484;11.476;2023-02-03T00:30:07;15.27;;;7.80;;
49488;SDS011;35382;51.484;11.476;2023-02-03T00:31:49;19.45;;;7.75;;
49488;SDS011;35382;51.484;11.476;2023-02-03T00:33:30;18.15;;;7.63;;
49488;SDS011;35382;51.484;11.476;2023-02-03T00:35:13;23.55;;;8.27;;
49488;SDS011;35382;51.484;11.476;2023-02-03T00:36:54;20.00;;;8.63;;
49488;SDS011;35382;51.484;11.476;2023-02-03T00:38:35;16.35;;;8.38;;
49488;SDS011;35382;51.484;11.476;2023-02-03T00:40:16;22.92;;;9.30;;
49488;SDS011;35382;51.484;11.476;2023-02-03T00:41:56;19.73;;;8.80;;
49488;SDS011;35382;51.484;11.476;2023-02-03T00:43:37;20.13;;;8.98;;
49488;SDS011;35382;51.484;11.476;2023-02-03T00:45:18;19.90;;;8.82;;
49488;SDS011;35382;51.484;11.476;2023-02-03T00:46:59;22.08;;;9.60;;
49488;SDS011;35382;51.484;11.476;2023-02-03T00:48:40;22.70;;;10.35;;
49488;SDS011;35382;51.484;11.476;2023-02-03T00:50:21;20.80;;;9.30;;
49488;SDS011;35382;51.484;11.476;2023-02-03T00:52:02;20.13;;;10.05;;
49488;SDS011;35382;51.484;11.476;2023-02-03T00:53:44;25.13;;;10.13;;
49488;SDS011;35382;51.484;11.476;2023-02-03T00:55:24;18.80;;;9.02;;
49488;SDS011;35382;51.484;11.476;2023-02-03T00:57:05;20.65;;;9.85;;
49488;SDS011;35382;51.484;11.476;2023-02-03T00:58:46;20.85;;;9.70;;
49488;SDS011;35382;51.484;11.476;2023-02-03T01:00:27;21.00;;;9.77;;
49488;SDS011;35382;51.484;11.476;2023-02-03T01:02:10;20.20;;;10.05;;
49488;SDS011;35382;51.484;11.476;2023-02-03T01:03:50;23.05;;;10.48;;
49488;SDS011;35382;51.484;11.476;2023-02-03T01:05:34;20.90;;;9.75;;
49488;SDS011;35382;51.484;11.476;2023-02-03T01:07:15;20.88;;;9.77;;
49488;SDS011;35382;51.484;11.476;2023-02-03T01:08:56;19.98;;;9.90;;
49488;SDS011;35382;51.484;11.476;2023-02-03T01:10:37;20.60;;;9.68;;
49488;SDS011;35382;51.484;11.476;2023-02-03T01:12:18;22.15;;;11.13;;
49488;SDS011;35382;51.484;11.476;2023-02-03T01:13:59;21.60;;;10.88;;
49488;SDS011;35382;51.484;11.476;2023-02-03T01:15:45;23.58;;;10.85;;
49488;SDS011;35382;51.484;11.476;2023-02-03T01:17:27;20.83;;;10.30;;
49488;SDS011;35382;51.484;11.476;2023-02-03T01:19:11;22.38;;;9.90;;
49488;SDS011;35382;51.484;11.476;2023-02-03T01:20:53;25.58;;;11.32;;
49488;SDS011;35382;51.484;11.476;2023-02-03T01:22:33;26.23;;;11.45;;
49488;SDS011;35382;51.484;11.476;2023-02-03T01:24:14;23.65;;;10.50;;
49488;SDS011;35382;51.484;11.476;2023-02-03T01:25:55;25.40;;;11.38;;
49488;SDS011;35382;51.484;11.476;2023-02-03T01:27:36;25.52;;;10.88;;
49488;SDS011;35382;51.484;11.476;2023-02-03T01:29:17;24.63;;;11.55;;
49488;SDS011;35382;51.484;11.476;2023-02-03T01:31:18;24.63;;;11.85;;
49488;SDS011;35382;51.484;11.476;2023-02-03T01:33:00;22.95;;;11.25;;
49488;SDS011;35382;51.484;11.476;2023-02-03T01:34:41;23.13;;;11.70;;
49488;SDS011;35382;51.484;11.476;2023-02-03T01:36:23;22.20;;;11.10;;
49488;SDS011;35382;51.484;11.476;2023-02-03T01:38:05;21.35;;;10.80;;
49488;SDS011;35382;51.484;11.476;2023-02-03T01:39:46;24.10;;;11.73;;
49488;SDS011;35382;51.484;11.476;2023-02-03T01:41:28;21.67;;;11.50;;
49488;SDS011;35382;51.484;11.476;2023-02-03T01:43:26;22.02;;;11.00;;
49488;SDS011;35382;51.484;11.476;2023-02-03T01:45:09;27.95;;;12.18;;
49488;SDS011;35382;51.484;11.476;2023-02-03T01:46:50;23.55;;;11.43;;
49488;SDS011;35382;51.484;11.476;2023-02-03T01:48:32;26.52;;;12.07;;
49488;SDS011;35382;51.484;11.476;2023-02-03T01:52:00;25.48;;;12.55;;
49488;SDS011;35382;51.484;11.476;2023-02-03T01:53:42;25.25;;;12.65;;
49488;SDS011;35382;51.484;11.476;2023-02-03T01:55:27;26.88;;;13.65;;
49488;SDS011;35382;51.484;11.476;2023-02-03T01:57:21;28.58;;;12.57;;
49488;SDS011;35382;51.484;11.476;2023-02-03T01:59:13;25.98;;;12.77;;
49488;SDS011;35382;51.484;11.476;2023-02-03T02:00:58;26.00;;;13.25;;
49488;SDS011;35382;51.484;11.476;2023-02-03T02:02:40;31.52;;;14.35;;
49488;SDS011;35382;51.484;11.476;2023-02-03T02:04:27;27.63;;;13.80;;
49488;SDS011;35382;51.484;11.476;2023-02-03T02:06:13;28.38;;;13.77;;
49488;SDS011;35382;51.484;11.476;2023-02-03T02:07:55;25.02;;;12.70;;
49488;SDS011;35382;51.484;11.476;2023-02-03T02:09:38;27.10;;;13.77;;
49488;SDS011;35382;51.484;11.476;2023-02-03T02:11:19;30.25;;;14.20;;
49488;SDS011;35382;51.484;11.476;2023-02-03T02:13:03;29.85;;;14.20;;
49488;SDS011;35382;51.484;11.476;2023-02-03T02:14:45;31.15;;;14.18;;
49488;SDS011;35382;51.484;11.476;2023-02-03T02:22:29;29.65;;;14.27;;
49488;SDS011;35382;51.484;11.476;2023-02-03T02:24:41;25.67;;;12.30;;
49488;SDS011;35382;51.484;11.476;2023-02-03T02:36:30;23.13;;;11.75;;
49488;SDS011;35382;51.484;11.476;2023-02-03T02:40:48;24.08;;;11.95;;
49488;SDS011;35382;51.484;11.476;2023-02-03T02:42:38;27.00;;;13.05;;
49488;SDS011;35382;51.484;11.476;2023-02-03T02:44:43;25.30;;;12.20;;
49488;SDS011;35382;51.484;11.476;2023-02-03T02:48:16;26.77;;;12.82;;
49488;SDS011;35382;51.484;11.476;2023-02-03T02:50:19;25.60;;;12.40;;
49488;SDS011;35382;51.484;11.476;2023-02-03T02:52:04;26.85;;;12.73;;
49488;SDS011;35382;51.484;11.476;2023-02-03T02:53:52;31.38;;;14.15;;
49488;SDS011;35382;51.484;11.476;2023-02-03T02:55:37;27.10;;;13.77;;
49488;SDS011;35382;51.484;11.476;2023-02-03T02:57:23;29.88;;;14.07;;
49488;SDS011;35382;51.484;11.476;2023-02-03T02:59:06;29.90;;;15.00;;
49488;SDS011;35382;51.484;11.476;2023-02-03T03:00:47;30.52;;;14.18;;
49488;SDS011;35382;51.484;11.476;2023-02-03T03:02:30;28.77;;;14.38;;
49488;SDS011;35382;51.484;11.476;2023-02-03T03:04:17;33.72;;;15.90;;
49488;SDS011;35382;51.484;11.476;2023-02-03T03:06:02;38.53;;;16.30;;
49488;SDS011;35382;51.484;11.476;2023-02-03T03:07:54;33.30;;;15.43;;
49488;SDS011;35382;51.484;11.476;2023-02-03T03:12:37;31.17;;;15.18;;
49488;SDS011;35382;51.484;11.476;2023-02-03T03:14:26;29.33;;;15.18;;
49488;SDS011;35382;51.484;11.476;2023-02-03T03:16:11;34.67;;;16.02;;
49488;SDS011;35382;51.484;11.476;2023-02-03T03:17:57;34.40;;;17.17;;
49488;SDS011;35382;51.484;11.476;2023-02-03T03:19:46;33.70;;;16.38;;
49488;SDS011;35382;51.484;11.476;2023-02-03T03:21:33;36.97;;;17.02;;
49488;SDS011;35382;51.484;11.476;2023-02-03T03:23:27;36.38;;;16.70;;
49488;SDS011;35382;51.484;11.476;2023-02-03T03:25:13;36.88;;;16.48;;
49488;SDS011;35382;51.484;11.476;2023-02-03T03:27:04;36.00;;;17.80;;
49488;SDS011;35382;51.484;11.476;2023-02-03T03:28:49;36.53;;;17.88;;
49488;SDS011;35382;51.484;11.476;2023-02-03T03:30:35;37.40;;;18.08;;
49488;SDS011;35382;51.484;11.476;2023-02-03T03:32:17;33.40;;;16.50;;
49488;SDS011;35382;51.484;11.476;2023-02-03T03:33:58;31.55;;;16.88;;
49488;SDS011;35382;51.484;11.476;2023-02-03T03:35:53;34.85;;;17.48;;
49488;SDS011;35382;51.484;11.476;2023-02-03T03:38:20;35.60;;;17.55;;
49488;SDS011;35382;51.484;11.476;2023-02-03T03:39:59;36.50;;;17.90;;
49488;SDS011;35382;51.484;11.476;2023-02-03T03:41:54;33.65;;;17.48;;
49488;SDS011;35382;51.484;11.476;2023-02-03T03:43:55;33.97;;;16.02;;
49488;SDS011;35382;51.484;11.476;2023-02-03T03:45:42;42.42;;;19.20;;
49488;SDS011;35382;51.484;11.476;2023-02-03T03:47:43;41.13;;;18.67;;
49488;SDS011;35382;51.484;11.476;2023-02-03T03:49:29;43.33;;;18.50;;
49488;SDS011;35382;51.484;11.476;2023-02-03T03:51:26;41.30;;;18.38;;
49488;SDS011;35382;51.484;11.476;2023-02-03T03:53:10;44.47;;;19.02;;
49488;SDS011;35382;51.484;11.476;2023-02-03T03:54:54;49.85;;;20.88;;
49488;SDS011;35382;51.484;11.476;2023-02-03T03:56:43;43.22;;;18.77;;
49488;SDS011;35382;51.484;11.476;2023-02-03T03:58:43;48.28;;;20.30;;
49488;SDS011;35382;51.484;11.476;2023-02-03T04:00:29;43.17;;;19.83;;
49488;SDS011;35382;51.484;11.476;2023-02-03T04:02:13;45.47;;;18.73;;
49488;SDS011;35382;51.484;11.476;2023-02-03T04:03:57;48.65;;;19.08;;
49488;SDS011;35382;51.484;11.476;2023-02-03T04:05:42;43.33;;;19.40;;
49488;SDS011;35382;51.484;11.476;2023-02-03T04:07:23;39.13;;;18.17;;
49488;SDS011;35382;51.484;11.476;2023-02-03T04:09:16;39.85;;;17.73;;
49488;SDS011;35382;51.484;11.476;2023-02-03T04:10:57;44.58;;;18.42;;
49488;SDS011;35382;51.484;11.476;2023-02-03T04:12:38;44.15;;;18.35;;
49488;SDS011;35382;51.484;11.476;2023-02-03T04:14:19;42.60;;;18.35;;
49488;SDS011;35382;51.484;11.476;2023-02-03T04:16:00;36.78;;;17.50;;
49488;SDS011;35382;51.484;11.476;2023-02-03T04:17:41;39.03;;;17.85;;
49488;SDS011;35382;51.484;11.476;2023-02-03T04:19:22;43.58;;;18.75;;
49488;SDS011;35382;51.484;11.476;2023-02-03T04:21:03;38.53;;;16.70;;
49488;SDS011;35382;51.484;11.476;2023-02-03T04:22:43;40.50;;;17.08;;
49488;SDS011;35382;51.484;11.476;2023-02-03T04:24:24;36.65;;;16.85;;
49488;SDS011;35382;51.484;11.476;2023-02-03T04:26:05;41.35;;;17.48;;
49488;SDS011;35382;51.484;11.476;2023-02-03T04:27:46;39.88;;;17.83;;
49488;SDS011;35382;51.484;11.476;2023-02-03T04:29:27;36.58;;;16.88;;
49488;SDS011;35382;51.484;11.476;2023-02-03T04:31:08;39.08;;;17.13;;
49488;SDS011;35382;51.484;11.476;2023-02-03T04:32:49;45.97;;;19.88;;
49488;SDS011;35382;51.484;11.476;2023-02-03T04:34:30;41.38;;;19.27;;
49488;SDS011;35382;51.484;11.476;2023-02-03T04:36:13;42.13;;;19.08;;
49488;SDS011;35382;51.484;11.476;2023-02-03T04:37:54;36.70;;;17.80;;
49488;SDS011;35382;51.484;11.476;2023-02-03T04:39:35;40.85;;;18.98;;
49488;SDS011;35382;51.484;11.476;2023-02-03T04:41:16;42.53;;;19.52;;
49488;SDS011;35382;51.484;11.476;2023-02-03T04:43:04;43.00;;;19.30;;
49488;SDS011;35382;51.484;11.476;2023-02-03T04:44:46;41.17;;;19.33;;
49488;SDS011;35382;51.484;11.476;2023-02-03T04:46:27;41.10;;;18.58;;
49488;SDS011;35382;51.484;11.476;2023-02-03T04:48:08;36.13;;;19.20;;
49488;SDS011;35382;51.484;11.476;2023-02-03T04:49:51;34.70;;;17.27;;
49488;SDS011;35382;51.484;11.476;2023-02-03T04:51:32;33.47;;;17.30;;
49488;SDS011;35382;51.484;11.476;2023-02-03T04:53:13;32.08;;;17.33;;
49488;SDS011;35382;51.484;11.476;2023-02-03T04:54:53;28.23;;;15.68;;
49488;SDS011;35382;51.484;11.476;2023-02-03T04:56:35;32.65;;;16.92;;
49488;SDS011;35382;51.484;11.476;2023-02-03T04:58:16;29.88;;;15.80;;
49488;SDS011;35382;51.484;11.476;2023-02-03T04:59:57;33.50;;;16.23;;
49488;SDS011;35382;51.484;11.476;2023-02-03T05:01:38;32.38;;;17.15;;
49488;SDS011;35382;51.484;11.476;2023-02-03T05:03:18;32.80;;;16.70;;
49488;SDS011;35382;51.484;11.476;2023-02-03T05:04:59;32.88;;;16.98;;
49488;SDS011;35382;51.484;11.476;2023-02-03T05:06:40;33.75;;;16.80;;
49488;SDS011;35382;51.484;11.476;2023-02-03T05:08:21;35.35;;;17.33;;
49488;SDS011;35382;51.484;11.476;2023-02-03T05:10:02;30.90;;;17.40;;
49488;SDS011;35382;51.484;11.476;2023-02-03T05:11:43;35.17;;;16.83;;
49488;SDS011;35382;51.484;11.476;2023-02-03T05:13:24;30.15;;;16.40;;
49488;SDS011;35382;51.484;11.476;2023-02-03T05:15:05;33.13;;;17.17;;
49488;SDS011;35382;51.484;11.476;2023-02-03T05:16:46;28.85;;;15.80;;
49488;SDS011;35382;51.484;11.476;2023-02-03T05:18:27;29.10;;;15.18;;
49488;SDS011;35382;51.484;11.476;2023-02-03T05:20:08;26.00;;;14.88;;
49488;SDS011;35382;51.484;11.476;2023-02-03T05:21:50;24.33;;;13.90;;
49488;SDS011;35382;51.484;11.476;2023-02-03T05:23:31;26.98;;;13.48;;
49488;SDS011;35382;51.484;11.476;2023-02-03T05:25:12;24.35;;;13.98;;
49488;SDS011;35382;51.484;11.476;2023-02-03T05:26:53;21.20;;;13.27;;
49488;SDS011;35382;51.484;11.476;2023-02-03T05:28:34;23.80;;;14.07;;
49488;SDS011;35382;51.484;11.476;2023-02-03T05:30:15;23.60;;;13.10;;
49488;SDS011;35382;51.484;11.476;2023-02-03T05:31:56;24.63;;;13.02;;
49488;SDS011;35382;51.484;11.476;2023-02-03T05:33:37;22.40;;;13.77;;
49488;SDS011;35382;51.484;11.476;2023-02-03T05:35:18;20.92;;;12.13;;
49488;SDS011;35382;51.484;11.476;2023-02-03T05:36:59;21.52;;;13.13;;
49488;SDS011;35382;51.484;11.476;2023-02-03T05:38:40;24.45;;;14.05;;
49488;SDS011;35382;51.484;11.476;2023-02-03T05:40:22;22.35;;;12.32;;
49488;SDS011;35382;51.484;11.476;2023-02-03T05:42:21;21.55;;;13.48;;
49488;SDS011;35382;51.484;11.476;2023-02-03T05:44:02;22.65;;;13.30;;
49488;SDS011;35382;51.484;11.476;2023-02-03T05:45:43;21.85;;;13.02;;
49488;SDS011;35382;51.484;11.476;2023-02-03T05:47:24;21.38;;;12.15;;
49488;SDS011;35382;51.484;11.476;2023-02-03T05:49:07;22.02;;;13.90;;
49488;SDS011;35382;51.484;11.476;2023-02-03T05:50:48;22.80;;;13.95;;
49488;SDS011;35382;51.484;11.476;2023-02-03T05:52:29;23.63;;;13.27;;
49488;SDS011;35382;51.484;11.476;2023-02-03T05:54:10;20.98;;;13.10;;
49488;SDS011;35382;51.484;11.476;2023-02-03T05:55:51;23.55;;;14.68;;
49488;SDS011;35382;51.484;11.476;2023-02-03T05:57:32;22.33;;;14.20;;
49488;SDS011;35382;51.484;11.476;2023-02-03T05:59:13;26.60;;;14.30;;
49488;SDS011;35382;51.484;11.476;2023-02-03T06:00:54;23.17;;;14.05;;
49488;SDS011;35382;51.484;11.476;2023-02-03T06:02:35;23.63;;;14.65;;
49488;SDS011;35382;51.484;11.476;2023-02-03T06:04:16;20.90;;;12.60;;
49488;SDS011;35382;51.484;11.476;2023-02-03T06:05:57;21.88;;;13.93;;
49488;SDS011;35382;51.484;11.476;2023-02-03T06:07:38;23.52;;;13.02;;
49488;SDS011;35382;51.484;11.476;2023-02-03T06:09:19;22.13;;;13.02;;
49488;SDS011;35382;51.484;11.476;2023-02-03T06:11:00;21.75;;;12.98;;
49488;SDS011;35382;51.484;11.476;2023-02-03T06:12:41;18.77;;;11.38;;
49488;SDS011;35382;51.484;11.476;2023-02-03T06:14:22;16.60;;;10.68;;
49488;SDS011;35382;51.484;11.476;2023-02-03T06:16:03;16.77;;;10.75;;
49488;SDS011;35382;51.484;11.476;2023-02-03T06:17:44;20.90;;;12.07;;
49488;SDS011;35382;51.484;11.476;2023-02-03T06:19:27;19.23;;;11.50;;
49488;SDS011;35382;51.484;11.476;2023-02-03T06:21:08;22.20;;;11.77;;
49488;SDS011;35382;51.484;11.476;2023-02-03T06:22:49;19.45;;;12.15;;
49488;SDS011;35382;51.484;11.476;2023-02-03T06:24:33;22.30;;;12.55;;
49488;SDS011;35382;51.484;11.476;2023-02-03T06:26:14;21.13;;;13.05;;
49488;SDS011;35382;51.484;11.476;2023-02-03T06:27:55;19.35;;;12.25;;
49488;SDS011;35382;51.484;11.476;2023-02-03T06:29:36;18.48;;;11.57;;
49488;SDS011;35382;51.484;11.476;2023-02-03T06:31:17;22.60;;;12.05;;
49488;SDS011;35382;51.484;11.476;2023-02-03T06:32:57;23.00;;;12.60;;
49488;SDS011;35382;51.484;11.476;2023-02-03T06:34:38;19.92;;;11.63;;
49488;SDS011;35382;51.484;11.476;2023-02-03T06:36:19;24.98;;;11.90;;
49488;SDS011;35382;51.484;11.476;2023-02-03T06:38:00;19.25;;;11.82;;
49488;SDS011;35382;51.484;11.476;2023-02-03T06:39:41;22.17;;;12.02;;
49488;SDS011;35382;51.484;11.476;2023-02-03T06:41:22;21.65;;;12.60;;
49488;SDS011;35382;51.484;11.476;2023-02-03T06:43:08;20.80;;;10.75;;
49488;SDS011;35382;51.484;11.476;2023-02-03T06:44:49;18.27;;;12.32;;
49488;SDS011;35382;51.484;11.476;2023-02-03T06:46:30;17.08;;;11.52;;
49488;SDS011;35382;51.484;11.476;2023-02-03T06:48:12;19.15;;;11.95;;
49488;SDS011;35382;51.484;11.476;2023-02-03T06:49:53;14.55;;;10.52;;
49488;SDS011;35382;51.484;11.476;2023-02-03T06:51:35;16.45;;;10.63;;
49488;SDS011;35382;51.484;11.476;2023-02-03T06:53:16;15.07;;;9.57;;
49488;SDS011;35382;51.484;11.476;2023-02-03T06:54:57;15.60;;;9.23;;
49488;SDS011;35382;51.484;11.476;2023-02-03T06:56:38;17.67;;;9.98;;
49488;SDS011;35382;51.484;11.476;2023-02-03T06:58:19;16.80;;;9.75;;
49488;SDS011;35382;51.484;11.476;2023-02-03T06:59:59;16.33;;;10.05;;
49488;SDS011;35382;51.484;11.476;2023-02-03T07:01:40;15.10;;;10.32;;
49488;SDS011;35382;51.484;11.476;2023-02-03T07:03:21;16.20;;;9.77;;
49488;SDS011;35382;51.484;11.476;2023-02-03T07:05:02;18.50;;;10.27;;
49488;SDS011;35382;51.484;11.476;2023-02-03T07:06:43;14.98;;;10.15;;
49488;SDS011;35382;51.484;11.476;2023-02-03T07:08:27;18.95;;;12.13;;
49488;SDS011;35382;51.484;11.476;2023-02-03T07:10:08;16.75;;;10.30;;
49488;SDS011;35382;51.484;11.476;2023-02-03T07:11:49;19.65;;;10.80;;
49488;SDS011;35382;51.484;11.476;2023-02-03T07:13:30;16.52;;;9.98;;
49488;SDS011;35382;51.484;11.476;2023-02-03T07:15:11;14.32;;;9.95;;
49488;SDS011;35382;51.484;11.476;2023-02-03T07:16:52;18.95;;;10.85;;
49488;SDS011;35382;51.484;11.476;2023-02-03T07:18:33;17.30;;;10.43;;
49488;SDS011;35382;51.484;11.476;2023-02-03T07:20:14;13.93;;;9.18;;
49488;SDS011;35382;51.484;11.476;2023-02-03T07:21:55;17.77;;;10.52;;
49488;SDS011;35382;51.484;11.476;2023-02-03T07:23:36;15.43;;;9.85;;
49488;SDS011;35382;51.484;11.476;2023-02-03T07:25:17;14.02;;;9.80;;
49488;SDS011;35382;51.484;11.476;2023-02-03T07:26:58;16.45;;;10.40;;
49488;SDS011;35382;51.484;11.476;2023-02-03T07:28:39;17.17;;;11.45;;
49488;SDS011;35382;51.484;11.476;2023-02-03T07:30:20;17.00;;;10.38;;
49488;SDS011;35382;51.484;11.476;2023-02-03T07:32:01;17.30;;;10.75;;
49488;SDS011;35382;51.484;11.476;2023-02-03T07:33:42;18.20;;;11.25;;
49488;SDS011;35382;51.484;11.476;2023-02-03T07:35:23;15.02;;;10.15;;
49488;SDS011;35382;51.484;11.476;2023-02-03T07:37:05;16.58;;;10.32;;
49488;SDS011;35382;51.484;11.476;2023-02-03T07:38:46;19.30;;;10.93;;
49488;SDS011;35382;51.484;11.476;2023-02-03T07:40:27;15.27;;;10.73;;
49488;SDS011;35382;51.484;11.476;2023-02-03T07:42:07;22.02;;;12.75;;
49488;SDS011;35382;51.484;11.476;2023-02-03T07:43:51;19.95;;;11.02;;
49488;SDS011;35382;51.484;11.476;2023-02-03T07:45:32;17.35;;;9.70;;
49488;SDS011;35382;51.484;11.476;2023-02-03T07:47:13;14.63;;;10.40;;
49488;SDS011;35382;51.484;11.476;2023-02-03T07:48:54;14.02;;;9.60;;
49488;SDS011;35382;51.484;11.476;2023-02-03T07:50:35;16.65;;;9.80;;
49488;SDS011;35382;51.484;11.476;2023-02-03T07:52:16;16.35;;;9.82;;
49488;SDS011;35382;51.484;11.476;2023-02-03T07:53:57;20.70;;;10.52;;
49488;SDS011;35382;51.484;11.476;2023-02-03T07:55:38;17.38;;;9.95;;
49488;SDS011;35382;51.484;11.476;2023-02-03T07:57:19;16.05;;;10.00;;
49488;SDS011;35382;51.484;11.476;2023-02-03T07:59:00;16.67;;;10.70;;
49488;SDS011;35382;51.484;11.476;2023-02-03T08:00:41;18.23;;;10.13;;
49488;SDS011;35382;51.484;11.476;2023-02-03T08:02:23;14.77;;;9.50;;
49488;SDS011;35382;51.484;11.476;2023-02-03T08:04:04;18.45;;;9.95;;
49488;SDS011;35382;51.484;11.476;2023-02-03T08:05:45;17.90;;;10.82;;
49488;SDS011;35382;51.484;11.476;2023-02-03T08:07:26;15.35;;;10.57;;
49488;SDS011;35382;51.484;11.476;2023-02-03T08:09:07;18.10;;;11.15;;
49488;SDS011;35382;51.484;11.476;2023-02-03T08:10:48;18.58;;;11.25;;
49488;SDS011;35382;51.484;11.476;2023-02-03T08:12:29;16.13;;;10.15;;
49488;SDS011;35382;51.484;11.476;2023-02-03T08:14:10;16.65;;;10.45;;
49488;SDS011;35382;51.484;11.476;2023-02-03T08:15:51;16.98;;;10.77;;
49488;SDS011;35382;51.484;11.476;2023-02-03T08:17:32;16.63;;;10.48;;
49488;SDS011;35382;51.484;11.476;2023-02-03T08:19:13;14.90;;;9.20;;
49488;SDS011;35382;51.484;11.476;2023-02-03T08:20:54;14.90;;;9.38;;
49488;SDS011;35382;51.484;11.476;2023-02-03T08:22:35;16.15;;;10.35;;
49488;SDS011;35382;51.484;11.476;2023-02-03T08:24:16;19.73;;;10.18;;
49488;SDS011;35382;51.484;11.476;2023-02-03T08:25:57;17.63;;;11.23;;
49488;SDS011;35382;51.484;11.476;2023-02-03T08:27:40;16.17;;;9.90;;
49488;SDS011;35382;51.484;11.476;2023-02-03T08:29:21;19.25;;;10.20;;
49488;SDS011;35382;51.484;11.476;2023-02-03T08:31:07;14.75;;;9.57;;
49488;SDS011;35382;51.484;11.476;2023-02-03T08:32:52;20.48;;;11.20;;
49488;SDS011;35382;51.484;11.476;2023-02-03T08:34:33;21.25;;;10.93;;
49488;SDS011;35382;51.484;11.476;2023-02-03T08:36:14;22.20;;;10.93;;
49488;SDS011;35382;51.484;11.476;2023-02-03T08:37:55;20.70;;;12.07;;
49488;SDS011;35382;51.484;11.476;2023-02-03T08:39:36;20.48;;;11.38;;
49488;SDS011;35382;51.484;11.476;2023-02-03T08:41:17;17.77;;;10.88;;
49488;SDS011;35382;51.484;11.476;2023-02-03T08:42:59;16.70;;;9.90;;
49488;SDS011;35382;51.484;11.476;2023-02-03T08:44:40;16.40;;;10.30;;
49488;SDS011;35382;51.484;11.476;2023-02-03T08:46:23;20.45;;;11.57;;
49488;SDS011;35382;51.484;11.476;2023-02-03T08:48:04;16.00;;;10.35;;
49488;SDS011;35382;51.484;11.476;2023-02-03T08:49:45;19.80;;;11.18;;
49488;SDS011;35382;51.484;11.476;2023-02-03T08:51:26;17.73;;;10.23;;
49488;SDS011;35382;51.484;11.476;2023-02-03T08:53:07;18.70;;;11.88;;
49488;SDS011;35382;51.484;11.476;2023-02-03T08:54:48;16.38;;;10.77;;
49488;SDS011;35382;51.484;11.476;2023-02-03T08:56:29;13.82;;;9.27;;
49488;SDS011;35382;51.484;11.476;2023-02-03T08:58:10;18.45;;;10.43;;
49488;SDS011;35382;51.484;11.476;2023-02-03T08:59:51;16.67;;;10.65;;
49488;SDS011;35382;51.484;11.476;2023-02-03T09:01:34;11.02;;;7.70;;
49488;SDS011;35382;51.484;11.476;2023-02-03T09:03:15;15.02;;;8.88;;
49488;SDS011;35382;51.484;11.476;2023-02-03T09:04:55;11.35;;;8.40;;
49488;SDS011;35382;51.484;11.476;2023-02-03T09:06:36;17.85;;;9.80;;
49488;SDS011;35382;51.484;11.476;2023-02-03T09:08:18;14.15;;;7.95;;
49488;SDS011;35382;51.484;11.476;2023-02-03T09:09:59;15.00;;;8.43;;
49488;SDS011;35382;51.484;11.476;2023-02-03T09:11:40;15.40;;;9.48;;
49488;SDS011;35382;51.484;11.476;2023-02-03T09:13:22;13.02;;;8.63;;
49488;SDS011;35382;51.484;11.476;2023-02-03T09:15:03;13.00;;;8.45;;
49488;SDS011;35382;51.484;11.476;2023-02-03T09:16:44;11.80;;;7.80;;
49488;SDS011;35382;51.484;11.476;2023-02-03T09:18:25;16.13;;;9.18;;
49488;SDS011;35382;51.484;11.476;2023-02-03T09:20:08;11.82;;;7.90;;
49488;SDS011;35382;51.484;11.476;2023-02-03T09:21:52;14.27;;;7.85;;
49488;SDS011;35382;51.484;11.476;2023-02-03T09:23:33;13.35;;;7.43;;
49488;SDS011;35382;51.484;11.476;2023-02-03T09:25:14;13.38;;;8.18;;
49488;SDS011;35382;51.484;11.476;2023-02-03T09:26:55;9.48;;;5.47;;
49488;SDS011;35382;51.484;11.476;2023-02-03T09:28:36;10.85;;;5.90;;
49488;SDS011;35382;51.484;11.476;2023-02-03T09:30:18;11.45;;;7.45;;
49488;SDS011;35382;51.484;11.476;2023-02-03T09:31:59;11.77;;;7.22;;
49488;SDS011;35382;51.484;11.476;2023-02-03T09:33:40;11.77;;;7.82;;
49488;SDS011;35382;51.484;11.476;2023-02-03T09:35:21;10.75;;;6.35;;
49488;SDS011;35382;51.484;11.476;2023-02-03T09:37:03;11.82;;;5.45;;
49488;SDS011;35382;51.484;11.476;2023-02-03T09:38:44;9.77;;;6.30;;
49488;SDS011;35382;51.484;11.476;2023-02-03T09:40:29;8.40;;;5.47;;
49488;SDS011;35382;51.484;11.476;2023-02-03T09:45:42;8.30;;;5.70;;
49488;SDS011;35382;51.484;11.476;2023-02-03T09:47:27;9.63;;;5.40;;
49488;SDS011;35382;51.484;11.476;2023-02-03T09:51:39;7.47;;;4.82;;
49488;SDS011;35382;51.484;11.476;2023-02-03T09:53:36;7.60;;;4.63;;
49488;SDS011;35382;51.484;11.476;2023-02-03T09:55:35;7.40;;;4.63;;
49488;SDS011;35382;51.484;11.476;2023-02-03T09:57:21;10.65;;;4.93;;
49488;SDS011;35382;51.484;11.476;2023-02-03T09:59:04;5.63;;;4.13;;
49488;SDS011;35382;51.484;11.476;2023-02-03T10:01:00;4.65;;;3.47;;
49488;SDS011;35382;51.484;11.476;2023-02-03T10:02:55;5.40;;;3.30;;
49488;SDS011;35382;51.484;11.476;2023-02-03T10:04:48;5.03;;;3.10;;
49488;SDS011;35382;51.484;11.476;2023-02-03T10:06:35;6.05;;;3.03;;
49488;SDS011;35382;51.484;11.476;2023-02-03T10:10:35;5.28;;;2.83;;
49488;SDS011;35382;51.484;11.476;2023-02-03T10:18:39;5.28;;;2.78;;
49488;SDS011;35382;51.484;11.476;2023-02-03T10:22:40;4.65;;;2.90;;
49488;SDS011;35382;51.484;11.476;2023-02-03T10:24:26;4.13;;;2.97;;
49488;SDS011;35382;51.484;11.476;2023-02-03T10:26:30;4.40;;;2.63;;
49488;SDS011;35382;51.484;11.476;2023-02-03T10:28:18;7.07;;;2.80;;
49488;SDS011;35382;51.484;11.476;2023-02-03T10:30:05;4.55;;;2.65;;
49488;SDS011;35382;51.484;11.476;2023-02-03T10:31:59;5.43;;;3.17;;
49488;SDS011;35382;51.484;11.476;2023-02-03T10:33:40;4.40;;;2.60;;
49488;SDS011;35382;51.484;11.476;2023-02-03T10:35:21;4.00;;;2.70;;
49488;SDS011;35382;51.484;11.476;2023-02-03T10:37:29;4.95;;;2.78;;
49488;SDS011;35382;51.484;11.476;2023-02-03T10:41:01;3.60;;;2.30;;
49488;SDS011;35382;51.484;11.476;2023-02-03T10:42:43;3.53;;;2.20;;